KCOU/COU METAR and TAF weather

Enter ICAO airport designator
Station Type Date Time Source
KCOU METAR 2021/07/27 22:54 UTC NOAA

KCOU 272254Z 17004KT 10SM CLR 32/20 A3002 RMK AO2 SLP158 T03170200


Station Type Date Time Source
KCOU Decoded METAR 2021/07/27 22:54 UTC NOAA

COLUMBIA REGIONAL AIRPORT, MO, United States (KCOU) 38-49N 092-13W 271M
Jul 27, 2021 - 06:54 PM EDT / 2021.07.27 2254 UTC
Wind: from the S (170 degrees) at 5 MPH (4 KT):0
Visibility: 10 mile(s):0
Sky conditions: clear
Temperature: 89.1 F (31.7 C)
Dew Point: 68.0 F (20.0 C)
Relative Humidity: 49%
Pressure (altimeter): 30.02 in. Hg (1016 hPa)
ob: KCOU 272254Z 17004KT 10SM CLR 32/20 A3002 RMK AO2 SLP158 T03170200
cycle: 23

Station Type Date Time Source
KCOU TAF 2021/07/27 18:22 UTC NOAA

TAF KCOU 271720Z 2718/2818 18004KT P6SM SKC

Example: see airport list